Time;durP1;ratioP1;P1;durP2;ratioP2;P2;SDS_P1;SDS_P2;PMS_P1;PMS_P2;Temp;Humidity;BMP_temperature;BMP_pressure;BME280_temperature;BME280_humidity;BME280_pressure;Samples;Min_cycle;Max_cycle;Signal;HPM_P1;HPM_P2
2021/07/29 00:01:17;;;;;;;58.17;2.60;;;16.40;1.00;;;;;;5051459;28;20473;-74
2021/07/29 00:03:44;;;;;;;58.47;2.70;;;16.40;1.00;;;;;;5051246;28;20544;-74
2021/07/29 00:06:15;;;;;;;58.50;3.23;;;16.30;1.00;;;;;;5051378;28;20548;-74
2021/07/29 00:08:42;;;;;;;57.97;2.70;;;16.30;1.00;;;;;;5051702;28;20822;-74
2021/07/29 00:11:10;;;;;;;58.23;2.60;;;16.30;1.00;;;;;;5051132;28;20528;-74
2021/07/29 00:13:37;;;;;;;58.27;2.67;;;16.20;1.00;;;;;;5051488;28;20537;-74
2021/07/29 00:16:05;;;;;;;58.60;2.60;;;16.20;1.00;;;;;;5051412;28;20475;-74
2021/07/29 00:21:17;;;;;;;58.37;2.40;;;16.10;1.00;;;;;;5050963;28;20508;-74
2021/07/29 00:23:47;;;;;;;58.47;2.93;;;16.00;1.00;;;;;;5050168;28;20533;-74
2021/07/29 00:26:13;;;;;;;58.17;2.60;;;16.00;1.00;;;;;;5047040;28;20492;-74
2021/07/29 00:28:40;;;;;;;58.07;2.40;;;16.00;1.00;;;;;;5031251;28;20532;-74
2021/07/29 00:31:08;;;;;;;58.37;2.40;;;15.90;1.00;;;;;;5030850;28;20483;-74
2021/07/29 00:33:35;;;;;;;58.27;2.50;;;15.90;1.00;;;;;;5031095;28;20441;-74
2021/07/29 00:36:02;;;;;;;57.77;2.50;;;15.90;1.00;;;;;;5030992;28;20577;-74
2021/07/29 00:38:29;;;;;;;58.07;2.60;;;15.90;1.00;;;;;;5031303;28;20453;-74
2021/07/29 00:40:56;;;;;;;59.07;3.33;;;15.90;1.00;;;;;;5031138;28;20489;-74
2021/07/29 00:43:23;;;;;;;58.33;2.47;;;15.90;1.00;;;;;;5030961;28;20497;-74
2021/07/29 00:45:50;;;;;;;58.17;2.50;;;15.80;1.00;;;;;;5031212;28;20473;-74
2021/07/29 00:48:20;;;;;;;58.00;2.40;;;15.80;1.00;;;;;;5034717;28;20537;-72
2021/07/29 00:50:47;;;;;;;58.43;2.97;;;15.80;1.00;;;;;;5034437;28;20450;-74
2021/07/29 00:53:14;;;;;;;58.27;2.40;;;15.80;1.00;;;;;;5034661;28;20479;-73
2021/07/29 00:55:42;;;;;;;57.87;2.90;;;15.80;1.00;;;;;;5033344;28;20478;-74
2021/07/29 00:58:09;;;;;;;58.20;2.47;;;15.80;1.00;;;;;;5034474;28;20454;-74
2021/07/29 01:00:35;;;;;;;58.30;2.70;;;15.80;1.00;;;;;;5034416;28;20937;-74
2021/07/29 01:03:02;;;;;;;58.40;2.50;;;15.80;1.00;;;;;;5033909;28;20463;-74
2021/07/29 01:05:31;;;;;;;58.37;2.50;;;15.80;1.00;;;;;;5034511;28;20555;-74
2021/07/29 01:07:57;;;;;;;58.37;2.93;;;15.80;1.00;;;;;;5034541;28;20537;-74
2021/07/29 01:10:24;;;;;;;58.27;2.63;;;15.70;1.00;;;;;;5034476;28;20548;-74
2021/07/29 01:12:51;;;;;;;57.93;2.50;;;15.70;1.00;;;;;;5034049;28;20821;-74
2021/07/29 01:15:18;;;;;;;58.80;2.90;;;15.60;1.00;;;;;;5034178;28;20915;-74
2021/07/29 01:17:45;;;;;;;58.90;2.70;;;15.60;1.00;;;;;;5033929;28;20461;-74
2021/07/29 01:20:19;;;;;;;58.13;2.50;;;15.60;1.00;;;;;;5034284;28;20484;-74
2021/07/29 01:22:46;;;;;;;58.47;2.70;;;15.50;1.00;;;;;;5033697;28;20549;-74
2021/07/29 01:25:13;;;;;;;58.50;2.60;;;15.50;1.00;;;;;;5033881;28;20471;-74
2021/07/29 01:27:40;;;;;;;58.40;2.60;;;15.50;1.00;;;;;;5043845;28;20898;-74
2021/07/29 01:30:07;;;;;;;58.70;3.07;;;15.50;1.00;;;;;;5053568;28;20449;-75
2021/07/29 01:32:36;;;;;;;58.37;2.33;;;15.40;1.00;;;;;;5053519;28;20981;-75
2021/07/29 01:35:04;;;;;;;58.07;2.57;;;15.40;1.00;;;;;;5053872;28;20504;-75
2021/07/29 01:37:32;;;;;;;58.40;2.60;;;15.30;1.00;;;;;;5053590;28;20445;-75
2021/07/29 01:39:59;;;;;;;58.47;2.70;;;15.30;1.00;;;;;;5053728;28;20912;-75
2021/07/29 01:42:26;;;;;;;58.03;2.40;;;15.30;1.00;;;;;;5053448;28;20455;-75
2021/07/29 01:44:53;;;;;;;58.70;2.90;;;15.20;1.00;;;;;;5053968;28;20492;-75
2021/07/29 01:47:20;;;;;;;58.47;2.70;;;15.20;1.00;;;;;;5053493;28;20490;-75
2021/07/29 01:49:47;;;;;;;58.20;2.80;;;15.20;1.00;;;;;;5053629;28;20488;-75
2021/07/29 01:52:13;;;;;;;58.40;2.50;;;15.10;1.00;;;;;;5053215;28;20532;-75
2021/07/29 01:54:42;;;;;;;58.30;2.63;;;15.10;1.00;;;;;;5053464;28;20506;-75
2021/07/29 01:57:09;;;;;;;58.13;2.40;;;15.00;1.00;;;;;;5052850;28;20877;-75
2021/07/29 01:59:36;;;;;;;58.37;2.50;;;15.00;1.00;;;;;;5051288;28;20961;-75
2021/07/29 02:02:04;;;;;;;58.50;2.80;;;15.00;1.00;;;;;;5053070;28;20861;-75
2021/07/29 02:04:31;;;;;;;58.03;2.60;;;15.00;1.00;;;;;;5053528;28;20488;-75
2021/07/29 02:06:58;;;;;;;58.27;2.60;;;15.00;1.00;;;;;;5053191;28;20882;-75
2021/07/29 02:09:25;;;;;;;58.40;2.40;;;15.00;1.00;;;;;;5053084;28;20535;-75
2021/07/29 02:11:53;;;;;;;58.40;2.40;;;15.00;1.00;;;;;;5052639;28;20451;-75
2021/07/29 02:14:21;;;;;;;58.50;2.80;;;15.00;1.00;;;;;;5053347;28;20894;-75
2021/07/29 02:16:49;;;;;;;58.37;2.77;;;15.00;1.00;;;;;;5053020;28;20473;-75
2021/07/29 02:19:16;;;;;;;58.07;2.37;;;15.00;1.00;;;;;;5052952;28;20452;-75
2021/07/29 02:21:44;;;;;;;58.17;2.50;;;15.00;1.00;;;;;;5052707;28;20948;-75
2021/07/29 02:24:11;;;;;;;58.07;2.60;;;14.90;1.00;;;;;;5052901;28;20829;-75
2021/07/29 02:26:38;;;;;;;58.70;2.70;;;14.90;1.00;;;;;;5052462;28;20552;-75
2021/07/29 02:29:07;;;;;;;58.40;2.43;;;14.90;1.00;;;;;;5049392;28;20536;-75
2021/07/29 02:31:34;;;;;;;58.33;2.50;;;14.90;1.00;;;;;;5037784;28;20539;-75
2021/07/29 02:34:00;;;;;;;58.57;2.60;;;14.80;1.00;;;;;;5052634;28;20455;-75
2021/07/29 02:36:27;;;;;;;58.17;2.50;;;14.80;1.00;;;;;;5052522;28;20495;-75
2021/07/29 02:38:54;;;;;;;58.07;2.60;;;14.80;1.00;;;;;;5052464;28;20535;-75
2021/07/29 02:41:21;;;;;;;57.77;2.50;;;14.80;1.00;;;;;;5052645;28;20572;-75
2021/07/29 02:43:48;;;;;;;58.30;2.63;;;14.80;1.00;;;;;;5052426;28;20975;-75
2021/07/29 02:46:16;;;;;;;58.60;3.07;;;14.80;1.00;;;;;;5052346;28;20554;-75
2021/07/29 02:48:43;;;;;;;58.50;2.60;;;14.70;1.00;;;;;;5052443;28;20531;-75
2021/07/29 02:51:10;;;;;;;58.17;2.50;;;14.70;1.00;;;;;;5052258;28;20953;-75
2021/07/29 02:53:37;;;;;;;58.30;2.40;;;14.70;1.00;;;;;;5051915;28;20956;-75
2021/07/29 02:56:05;;;;;;;58.23;2.60;;;14.60;1.00;;;;;;5052390;28;20465;-75
2021/07/29 02:58:32;;;;;;;58.07;2.50;;;14.60;1.00;;;;;;5052264;28;20464;-75
2021/07/29 03:00:59;;;;;;;58.27;2.70;;;14.60;1.00;;;;;;5050842;28;20489;-75
2021/07/29 03:03:27;;;;;;;58.67;3.13;;;14.60;1.00;;;;;;5051662;28;20578;-75
2021/07/29 03:05:54;;;;;;;58.07;2.40;;;14.60;1.00;;;;;;5051935;28;20552;-74
2021/07/29 03:08:21;;;;;;;58.27;2.60;;;14.60;1.00;;;;;;5052319;28;20459;-75
2021/07/29 03:10:48;;;;;;;58.23;2.50;;;14.70;1.00;;;;;;5052048;28;20448;-75
2021/07/29 03:13:16;;;;;;;58.47;2.80;;;14.70;1.00;;;;;;5051888;28;20555;-75
2021/07/29 03:15:43;;;;;;;58.33;2.50;;;14.70;1.00;;;;;;5051789;28;21079;-75
2021/07/29 03:18:10;;;;;;;58.07;2.50;;;14.70;1.00;;;;;;5052414;28;20540;-75
2021/07/29 03:20:40;;;;;;;58.83;3.27;;;14.70;1.00;;;;;;5051661;28;20486;-75
2021/07/29 03:23:07;;;;;;;58.17;2.50;;;14.60;1.00;;;;;;5051612;28;20829;-76
2021/07/29 03:25:35;;;;;;;58.47;2.93;;;14.60;1.00;;;;;;5051416;28;20479;-75
2021/07/29 03:28:01;;;;;;;58.23;2.50;;;14.60;1.00;;;;;;5051955;28;20447;-75
2021/07/29 03:30:28;;;;;;;58.67;2.80;;;14.60;1.00;;;;;;5052214;28;20477;-75
2021/07/29 03:32:55;;;;;;;58.57;2.77;;;14.60;1.00;;;;;;5050025;28;20459;-75
2021/07/29 03:35:22;;;;;;;58.47;2.60;;;14.50;1.00;;;;;;5051643;28;20482;-75
2021/07/29 03:37:50;;;;;;;58.13;2.60;;;14.50;1.00;;;;;;5051895;28;20531;-74
2021/07/29 03:40:17;;;;;;;59.33;2.80;;;14.50;1.00;;;;;;5051722;28;20497;-75
2021/07/29 03:42:44;;;;;;;58.43;2.80;;;14.50;1.00;;;;;;5051805;28;20540;-75
2021/07/29 03:45:12;;;;;;;58.27;2.70;;;14.50;1.00;;;;;;5051374;28;20555;-75
2021/07/29 03:47:39;;;;;;;58.07;2.67;;;14.50;1.00;;;;;;5051300;28;20952;-75
2021/07/29 03:50:07;;;;;;;59.10;3.00;;;14.50;1.00;;;;;;5051734;28;20540;-76
2021/07/29 03:52:36;;;;;;;58.17;2.60;;;14.50;1.00;;;;;;5051340;28;20535;-76
2021/07/29 03:55:06;;;;;;;58.37;2.70;;;14.50;1.00;;;;;;5051618;28;20471;-75
2021/07/29 03:57:33;;;;;;;58.50;2.70;;;14.50;1.00;;;;;;5051508;28;20453;-74
2021/07/29 04:00:01;;;;;;;58.33;2.57;;;14.50;1.00;;;;;;5051456;28;20507;-75
2021/07/29 04:02:28;;;;;;;58.27;2.50;;;14.50;1.00;;;;;;5049939;28;20474;-76
2021/07/29 04:04:55;;;;;;;58.50;2.90;;;14.60;1.00;;;;;;5051225;28;20468;-75
2021/07/29 04:07:21;;;;;;;58.23;2.50;;;14.60;1.00;;;;;;5051509;28;20877;-75
2021/07/29 04:09:48;;;;;;;58.30;2.70;;;14.60;1.00;;;;;;5051805;28;20448;-75
2021/07/29 04:12:16;;;;;;;58.30;2.80;;;14.60;1.00;;;;;;5051020;28;20449;-75
2021/07/29 04:14:44;;;;;;;58.33;2.70;;;14.60;1.00;;;;;;5050958;28;20544;-75
2021/07/29 04:17:12;;;;;;;58.23;2.60;;;14.60;1.00;;;;;;5051576;28;20448;-75
2021/07/29 04:19:39;;;;;;;59.00;2.70;;;14.70;1.00;;;;;;5051576;28;20449;-74
2021/07/29 04:22:07;;;;;;;58.37;2.70;;;14.70;1.00;;;;;;5053233;28;20489;-75
2021/07/29 04:24:35;;;;;;;58.33;2.83;;;14.70;1.00;;;;;;5055023;28;20551;-76
2021/07/29 04:27:03;;;;;;;58.37;2.57;;;14.70;1.00;;;;;;5055131;28;20448;-75
2021/07/29 04:29:34;;;;;;;58.07;2.60;;;14.70;1.00;;;;;;5054901;28;20460;-75
2021/07/29 04:32:01;;;;;;;58.47;2.70;;;14.70;1.00;;;;;;5054879;28;20463;-75
2021/07/29 04:34:28;;;;;;;58.80;3.20;;;14.80;1.00;;;;;;5045624;28;20913;-75
2021/07/29 04:36:56;;;;;;;57.80;2.70;;;14.80;1.00;;;;;;5045968;28;20450;-75
2021/07/29 04:39:23;;;;;;;58.33;2.80;;;14.80;1.00;;;;;;5054673;28;20452;-75
2021/07/29 04:41:49;;;;;;;58.43;2.80;;;14.90;1.00;;;;;;5054274;28;20577;-75
2021/07/29 04:44:17;;;;;;;58.90;3.13;;;14.90;1.00;;;;;;5054651;28;20451;-75
2021/07/29 04:46:45;;;;;;;58.37;2.80;;;15.00;1.00;;;;;;5054802;28;20551;-75
2021/07/29 04:49:13;;;;;;;58.53;2.73;;;15.00;1.00;;;;;;5054838;28;20498;-75
2021/07/29 04:51:41;;;;;;;58.40;2.80;;;15.10;1.00;;;;;;5054323;28;20459;-75
2021/07/29 04:54:08;;;;;;;58.07;3.00;;;15.10;1.00;;;;;;5054611;28;20492;-75
2021/07/29 04:56:35;;;;;;;57.93;2.50;;;15.10;1.00;;;;;;5054223;28;20468;-75
2021/07/29 04:59:02;;;;;;;58.23;2.53;;;15.10;1.00;;;;;;5054637;28;20891;-75
2021/07/29 05:01:29;;;;;;;58.30;2.47;;;15.20;1.00;;;;;;5054043;28;20575;-75
2021/07/29 05:03:57;;;;;;;57.97;2.57;;;15.20;1.00;;;;;;5054281;28;20560;-76
2021/07/29 05:06:24;;;;;;;58.07;2.80;;;15.20;1.00;;;;;;5053390;28;20960;-75
2021/07/29 05:08:51;;;;;;;58.13;2.50;;;15.20;1.00;;;;;;5054006;28;20496;-75
2021/07/29 05:11:17;;;;;;;58.07;2.63;;;15.30;1.00;;;;;;5054022;28;21026;-74
2021/07/29 05:13:44;;;;;;;58.67;2.73;;;15.30;1.00;;;;;;5054135;28;20539;-75
2021/07/29 05:16:11;;;;;;;58.57;3.20;;;15.40;1.00;;;;;;5053978;28;20469;-74
2021/07/29 05:18:38;;;;;;;57.97;2.60;;;15.40;1.00;;;;;;5054154;28;20543;-75
2021/07/29 05:21:08;;;;;;;58.23;2.87;;;15.40;1.00;;;;;;5054010;28;20492;-74
2021/07/29 05:23:35;;;;;;;70.90;3.00;;;15.50;1.00;;;;;;5053753;28;20438;-75
2021/07/29 05:26:02;;;;;;;58.47;2.97;;;15.50;1.00;;;;;;5053887;28;20474;-74
2021/07/29 05:28:29;;;;;;;59.00;3.53;;;15.60;1.00;;;;;;5054087;28;20898;-75
2021/07/29 05:30:56;;;;;;;58.07;2.50;;;15.70;1.00;;;;;;5053854;28;20473;-74
2021/07/29 05:33:23;;;;;;;57.97;2.50;;;15.80;1.00;;;;;;5052400;28;20457;-75
2021/07/29 05:35:50;;;;;;;58.20;2.40;;;15.90;1.00;;;;;;5050948;28;20556;-75
2021/07/29 05:38:18;;;;;;;57.97;2.47;;;16.00;1.00;;;;;;5037702;28;20452;-76
2021/07/29 05:40:45;;;;;;;58.00;2.50;;;16.00;1.00;;;;;;5053832;28;20997;-73
2021/07/29 05:43:12;;;;;;;57.93;2.40;;;16.10;1.00;;;;;;5053480;28;20450;-74
2021/07/29 05:45:39;;;;;;;58.40;2.70;;;16.20;1.00;;;;;;5053563;28;20565;-74
2021/07/29 05:48:06;;;;;;;58.60;2.83;;;16.20;1.00;;;;;;5053571;28;20550;-74
2021/07/29 05:50:33;;;;;;;58.07;2.90;;;16.20;1.00;;;;;;5053351;28;20538;-75
2021/07/29 05:53:01;;;;;;;58.17;2.70;;;16.30;1.00;;;;;;5053422;28;20875;-74
2021/07/29 05:55:29;;;;;;;57.87;2.50;;;16.40;1.00;;;;;;5053477;28;20481;-74
2021/07/29 05:57:56;;;;;;;57.77;2.50;;;16.60;1.00;;;;;;5053410;28;20485;-74
2021/07/29 06:00:23;;;;;;;58.40;2.43;;;16.70;1.00;;;;;;5053303;28;20450;-74
2021/07/29 06:02:50;;;;;;;57.87;2.30;;;16.90;1.00;;;;;;5052852;28;20839;-75
2021/07/29 06:05:17;;;;;;;58.00;2.37;;;17.10;1.00;;;;;;5053211;28;20477;-74
2021/07/29 06:07:43;;;;;;;58.03;2.30;;;17.30;1.00;;;;;;5051975;28;20487;-75
2021/07/29 06:10:11;;;;;;;57.90;2.50;;;17.50;1.00;;;;;;5053171;28;20540;-74
2021/07/29 06:12:39;;;;;;;57.97;2.43;;;17.60;1.00;;;;;;5053072;28;20538;-74
2021/07/29 06:15:07;;;;;;;57.97;2.40;;;17.80;1.00;;;;;;5053095;28;20566;-74
2021/07/29 06:17:36;;;;;;;57.73;2.40;;;17.90;1.00;;;;;;5053088;28;20456;-74
2021/07/29 06:20:07;;;;;;;57.77;2.47;;;18.00;1.00;;;;;;5053009;28;20466;-75
2021/07/29 06:22:34;;;;;;;58.00;2.40;;;18.10;1.00;;;;;;5052854;28;20494;-74
2021/07/29 06:25:04;;;;;;;58.17;2.60;;;18.20;1.00;;;;;;5053011;28;20836;-74
2021/07/29 06:27:31;;;;;;;58.17;2.60;;;18.30;1.00;;;;;;5053420;28;20535;-74
2021/07/29 06:29:59;;;;;;;58.30;2.70;;;18.40;1.00;;;;;;5053198;28;20497;-75
2021/07/29 06:32:26;;;;;;;58.10;2.60;;;18.50;1.00;;;;;;5052842;28;20537;-75
2021/07/29 06:34:53;;;;;;;58.20;2.40;;;18.60;1.00;;;;;;5052843;28;20550;-74
2021/07/29 06:37:19;;;;;;;58.10;2.30;;;18.70;1.00;;;;;;5052568;28;20562;-74
2021/07/29 06:39:46;;;;;;;59.30;3.00;;;18.80;1.00;;;;;;5051341;28;20895;-74
2021/07/29 06:42:13;;;;;;;57.80;2.37;;;18.90;1.00;;;;;;5051965;28;20483;-73
2021/07/29 06:44:41;;;;;;;57.87;2.50;;;19.10;1.00;;;;;;5051930;28;20535;-73
2021/07/29 06:47:13;;;;;;;57.77;2.63;;;19.20;1.00;;;;;;5052760;28;20517;-74
2021/07/29 06:49:40;;;;;;;57.97;3.10;;;19.40;1.00;;;;;;5051522;28;20543;-73
2021/07/29 06:52:07;;;;;;;58.07;2.50;;;19.60;1.00;;;;;;5052161;28;20643;-73
2021/07/29 06:54:34;;;;;;;58.17;2.70;;;19.70;1.00;;;;;;5052276;28;21002;-73
2021/07/29 06:57:01;;;;;;;58.27;2.50;;;19.80;1.00;;;;;;5052355;28;20452;-73
2021/07/29 06:59:28;;;;;;;58.40;2.90;;;19.90;1.00;;;;;;5052141;28;20457;-73
2021/07/29 07:01:55;;;;;;;57.77;2.50;;;20.00;1.00;;;;;;5051960;28;20569;-73
2021/07/29 07:04:23;;;;;;;58.50;2.60;;;20.00;1.00;;;;;;5052281;28;20545;-73
2021/07/29 07:06:50;;;;;;;58.40;2.50;;;20.00;1.00;;;;;;5052165;28;20501;-74
2021/07/29 07:09:17;;;;;;;58.37;2.70;;;20.10;1.00;;;;;;5049385;28;20480;-75
2021/07/29 07:11:44;;;;;;;57.83;2.60;;;20.20;1.00;;;;;;5031445;28;20889;-73
2021/07/29 07:14:11;;;;;;;57.63;2.20;;;20.20;1.00;;;;;;5031453;28;20546;-74
2021/07/29 07:16:38;;;;;;;57.80;2.60;;;20.40;1.00;;;;;;5031882;28;20569;-73
2021/07/29 07:19:06;;;;;;;58.07;2.20;;;20.50;1.00;;;;;;5032149;28;20936;-74
2021/07/29 07:21:35;;;;;;;57.87;2.10;;;20.60;1.00;;;;;;5031725;28;20496;-74
2021/07/29 07:24:02;;;;;;;57.67;2.30;;;20.60;1.00;;;;;;5031928;28;20452;-74
2021/07/29 07:26:28;;;;;;;57.67;2.20;;;20.60;1.00;;;;;;5031632;28;20514;-74
2021/07/29 07:28:55;;;;;;;58.50;2.50;;;20.60;1.00;;;;;;5032044;28;20455;-75
2021/07/29 07:31:22;;;;;;;57.97;2.33;;;20.60;1.00;;;;;;5031896;28;20546;-76
2021/07/29 07:33:49;;;;;;;57.67;2.20;;;20.80;1.00;;;;;;5031885;28;20458;-75
2021/07/29 07:36:20;;;;;;;59.73;3.83;;;20.80;1.00;;;;;;5031841;28;20553;-74
2021/07/29 07:38:49;;;;;;;57.77;2.30;;;20.80;1.00;;;;;;5031750;28;20459;-74
2021/07/29 07:41:17;;;;;;;57.77;2.27;;;20.90;1.00;;;;;;5031651;28;20462;-74
2021/07/29 07:43:44;;;;;;;57.83;2.30;;;20.90;1.00;;;;;;5031711;28;20906;-74
2021/07/29 07:46:11;;;;;;;58.10;2.40;;;21.00;1.00;;;;;;5040447;28;20554;-74
2021/07/29 07:48:38;;;;;;;58.10;2.67;;;21.00;1.00;;;;;;5039167;28;20458;-74
2021/07/29 07:51:05;;;;;;;59.30;2.90;;;21.10;1.00;;;;;;5031497;28;20451;-74
2021/07/29 07:53:32;;;;;;;57.93;2.40;;;21.30;1.00;;;;;;5031213;28;21006;-75
2021/07/29 07:56:04;;;;;;;57.30;2.60;;;21.40;1.00;;;;;;5032165;28;20472;-75
2021/07/29 07:58:30;;;;;;;58.20;2.60;;;21.60;1.00;;;;;;5035890;28;20480;-74
2021/07/29 08:00:57;;;;;;;57.77;2.50;;;21.80;1.00;;;;;;5035671;28;20459;-75
2021/07/29 08:03:24;;;;;;;58.17;2.50;;;22.00;1.00;;;;;;5035392;28;20524;-74
2021/07/29 08:05:51;;;;;;;57.90;2.20;;;22.10;1.00;;;;;;5035556;28;20476;-74
2021/07/29 08:08:18;;;;;;;57.67;2.30;;;22.20;1.00;;;;;;5035687;28;20972;-75
2021/07/29 08:10:49;;;;;;;58.27;2.40;;;22.40;1.00;;;;;;5035350;28;20499;-75
2021/07/29 08:13:17;;;;;;;58.07;2.37;;;22.50;1.00;;;;;;5035349;28;20480;-73
2021/07/29 08:15:44;;;;;;;58.00;2.30;;;22.70;1.00;;;;;;5035056;28;21047;-73
2021/07/29 08:18:11;;;;;;;58.00;2.20;;;22.80;1.00;;;;;;5035025;28;20459;-73
2021/07/29 08:20:40;;;;;;;57.87;2.30;;;22.90;1.00;;;;;;5055044;28;20448;-73
2021/07/29 08:23:07;;;;;;;58.03;2.50;;;23.00;1.00;;;;;;5054859;28;21102;-72
2021/07/29 08:25:35;;;;;;;57.57;2.40;;;23.00;1.00;;;;;;5055222;28;20479;-72
2021/07/29 08:28:03;;;;;;;57.97;2.40;;;23.00;1.00;;;;;;5055240;28;20460;-73
2021/07/29 08:30:31;;;;;;;57.73;2.47;;;23.00;1.00;;;;;;5055138;28;20546;-73
2021/07/29 08:32:58;;;;;;;58.10;2.80;;;23.00;1.00;;;;;;5054659;28;20453;-72
2021/07/29 08:35:25;;;;;;;57.53;2.50;;;23.10;1.00;;;;;;5054908;28;20472;-74
2021/07/29 08:37:52;;;;;;;58.27;2.70;;;23.10;1.00;;;;;;5055241;28;20870;-73
2021/07/29 08:40:20;;;;;;;58.00;2.70;;;23.10;1.00;;;;;;5055149;28;20486;-73
2021/07/29 08:42:48;;;;;;;58.07;2.40;;;23.00;1.00;;;;;;5054557;28;20566;-73
2021/07/29 08:45:15;;;;;;;58.30;2.50;;;22.90;1.00;;;;;;5054855;28;20472;-73
2021/07/29 08:47:45;;;;;;;57.87;2.37;;;22.90;1.00;;;;;;5045831;28;20533;-72
2021/07/29 08:50:12;;;;;;;58.10;2.50;;;23.00;1.00;;;;;;5034733;28;20457;-73
2021/07/29 08:52:39;;;;;;;58.37;2.80;;;23.00;1.00;;;;;;5034632;28;20484;-72
2021/07/29 08:55:07;;;;;;;57.73;2.27;;;22.90;1.00;;;;;;5034658;28;20564;-73
2021/07/29 08:57:37;;;;;;;57.47;2.50;;;23.00;1.00;;;;;;5034614;28;20485;-72
2021/07/29 09:00:08;;;;;;;58.20;2.70;;;23.00;1.00;;;;;;5034564;28;20505;-72
2021/07/29 09:02:35;;;;;;;58.20;2.10;;;23.10;1.00;;;;;;5033050;28;20491;-72
2021/07/29 09:05:16;;;;;;;58.13;3.00;;;23.20;1.00;;;;;;5034367;28;21009;-74
2021/07/29 09:07:44;;;;;;;58.40;2.50;;;23.20;1.00;;;;;;5034255;28;20527;-73
2021/07/29 09:10:23;;;;;;;57.73;2.30;;;23.40;1.00;;;;;;5034323;28;20957;-72
2021/07/29 09:13:08;;;;;;;58.10;2.50;;;23.60;1.00;;;;;;5033993;28;20552;-72
2021/07/29 09:15:35;;;;;;;57.87;2.63;;;23.80;1.00;;;;;;5034300;28;20551;-73
2021/07/29 09:18:03;;;;;;;58.30;2.50;;;24.00;1.00;;;;;;5035626;28;20945;-73
2021/07/29 09:20:31;;;;;;;57.83;2.40;;;23.90;1.00;;;;;;5053949;28;20527;-73
2021/07/29 09:23:13;;;;;;;58.07;2.40;;;23.80;1.00;;;;;;5053607;28;20484;-73
2021/07/29 09:25:40;;;;;;;59.17;2.73;;;23.70;1.00;;;;;;5054205;28;20472;-72
2021/07/29 09:28:07;;;;;;;57.87;2.20;;;23.70;1.00;;;;;;5054109;28;20459;-72
2021/07/29 09:30:35;;;;;;;58.00;2.60;;;24.00;1.00;;;;;;5054034;28;20454;-72
2021/07/29 09:33:05;;;;;;;58.30;2.60;;;24.20;1.00;;;;;;5053591;28;21027;-72
2021/07/29 09:35:38;;;;;;;59.77;2.80;;;24.40;1.00;;;;;;5053753;28;20475;-73
2021/07/29 09:38:09;;;;;;;57.80;2.30;;;24.60;1.00;;;;;;5053990;28;20487;-73
2021/07/29 09:40:47;;;;;;;57.53;2.47;;;24.50;1.00;;;;;;5053889;28;20873;-72
2021/07/29 09:43:15;;;;;;;57.80;2.20;;;24.60;1.00;;;;;;5053762;28;20476;-72
2021/07/29 09:45:44;;;;;;;57.90;2.30;;;24.80;1.00;;;;;;5053465;28;20562;-73
2021/07/29 09:48:11;;;;;;;58.50;2.80;;;24.90;1.00;;;;;;5053382;28;20452;-74
2021/07/29 09:50:41;;;;;;;57.93;2.20;;;25.00;1.00;;;;;;5035886;28;20457;-72
2021/07/29 09:53:09;;;;;;;57.87;2.10;;;24.90;1.00;;;;;;5052751;28;20505;-72
2021/07/29 09:55:36;;;;;;;58.37;2.33;;;25.00;1.00;;;;;;5053355;28;20469;-73
2021/07/29 09:58:04;;;;;;;57.77;2.13;;;25.00;1.00;;;;;;5053465;28;20451;-73
2021/07/29 10:00:32;;;;;;;57.77;2.20;;;25.00;1.00;;;;;;5053195;28;20452;-74
2021/07/29 10:03:00;;;;;;;57.50;2.27;;;25.10;1.00;;;;;;5053164;28;20893;-73
2021/07/29 10:05:32;;;;;;;58.50;2.60;;;25.40;1.00;;;;;;5053318;28;20568;-74
2021/07/29 10:08:03;;;;;;;57.70;2.20;;;25.70;1.00;;;;;;5053237;28;20442;-74
2021/07/29 10:10:30;;;;;;;58.47;2.43;;;25.90;1.00;;;;;;5053272;28;20999;-74
2021/07/29 10:12:57;;;;;;;58.47;2.53;;;26.00;1.00;;;;;;5052899;28;20441;-74
2021/07/29 10:15:39;;;;;;;58.07;2.13;;;26.10;1.00;;;;;;5052884;28;20469;-74
2021/07/29 10:18:07;;;;;;;57.87;2.23;;;26.00;1.00;;;;;;5053134;28;20460;-73
2021/07/29 10:20:34;;;;;;;58.17;2.23;;;25.90;1.00;;;;;;5042770;28;20486;-74
2021/07/29 10:23:38;;;;;;;58.20;2.60;;;26.10;1.00;;;;;;5032373;28;20486;-75
2021/07/29 10:26:11;;;;;;;57.70;2.10;;;26.80;1.00;;;;;;5033053;28;20486;-74
2021/07/29 10:28:39;;;;;;;57.67;2.50;;;27.90;1.00;;;;;;5033375;28;20445;-74
2021/07/29 10:31:14;;;;;;;57.57;2.20;;;29.00;1.00;;;;;;5032893;28;20519;-74
2021/07/29 10:33:42;;;;;;;57.70;2.33;;;30.10;1.00;;;;;;5032708;28;20484;-74
2021/07/29 10:36:30;;;;;;;58.37;2.60;;;30.60;1.00;;;;;;5032551;28;20511;-74
2021/07/29 10:39:05;;;;;;;57.50;2.00;;;31.00;1.00;;;;;;5032581;28;20455;-74
2021/07/29 10:41:44;;;;;;;57.60;2.40;;;30.50;1.00;;;;;;5032402;28;20459;-74
2021/07/29 10:44:47;;;;;;;57.47;2.13;;;30.30;1.00;;;;;;5032463;28;20486;-75
2021/07/29 10:47:18;;;;;;;57.80;2.27;;;29.80;1.00;;;;;;5032779;28;20860;-75
2021/07/29 10:50:18;;;;;;;57.30;2.13;;;29.90;1.00;;;;;;5032656;28;20466;-74
2021/07/29 10:52:54;;;;;;;57.80;2.20;;;30.10;1.00;;;;;;5043528;28;20457;-74
2021/07/29 10:55:22;;;;;;;57.67;2.20;;;30.00;1.00;;;;;;5032314;28;20473;-74
2021/07/29 10:58:09;;;;;;;57.60;2.20;;;29.80;1.00;;;;;;5032500;28;20450;-74
2021/07/29 11:00:35;;;;;;;58.40;2.27;;;29.60;1.00;;;;;;5032347;28;20443;-73
2021/07/29 11:03:08;;;;;;;57.57;2.10;;;29.40;1.00;;;;;;5031711;28;20489;-71
2021/07/29 11:05:43;;;;;;;57.43;2.17;;;29.50;1.00;;;;;;5032065;28;20986;-74
2021/07/29 11:08:11;;;;;;;58.47;2.27;;;29.00;1.00;;;;;;5032405;28;20456;-74
2021/07/29 11:10:38;;;;;;;57.70;2.20;;;28.50;1.00;;;;;;5032274;28;20532;-73
2021/07/29 11:13:07;;;;;;;57.27;2.00;;;28.90;1.00;;;;;;5031954;28;20447;-74
2021/07/29 11:15:39;;;;;;;57.47;2.23;;;30.30;1.00;;;;;;5031838;28;20471;-74
2021/07/29 11:18:17;;;;;;;60.63;3.00;;;31.50;1.00;;;;;;5032192;28;20480;-75
2021/07/29 11:20:44;;;;;;;57.47;2.60;;;31.90;1.00;;;;;;5031803;28;20798;-74
2021/07/29 11:23:14;;;;;;;60.00;4.87;;;32.00;1.00;;;;;;5044181;28;20490;-74
2021/07/29 11:26:01;;;;;;;57.17;1.90;;;32.50;1.00;;;;;;5051146;28;20472;-74
2021/07/29 11:28:29;;;;;;;57.70;2.40;;;33.50;1.00;;;;;;5051782;28;20531;-74
2021/07/29 11:30:56;;;;;;;57.20;2.40;;;34.10;1.00;;;;;;5051597;28;20808;-75
2021/07/29 11:33:24;;;;;;;57.20;2.13;;;34.30;1.00;;;;;;5050783;28;20454;-73
2021/07/29 11:35:52;;;;;;;57.30;2.47;;;34.20;1.00;;;;;;5051265;28;20960;-74
2021/07/29 11:38:20;;;;;;;57.70;2.40;;;33.90;1.00;;;;;;5052037;28;20454;-74
2021/07/29 11:40:47;;;;;;;57.70;2.73;;;34.20;1.00;;;;;;5051512;28;20498;-73
2021/07/29 11:43:23;;;;;;;57.30;2.00;;;34.30;1.00;;;;;;5051170;28;20575;-73
2021/07/29 11:45:52;;;;;;;57.40;1.87;;;34.20;1.00;;;;;;5051581;28;20881;-75
2021/07/29 11:48:23;;;;;;;57.30;2.10;;;34.10;1.00;;;;;;5051100;28;20546;-74
2021/07/29 11:50:51;;;;;;;57.07;1.90;;;34.50;1.00;;;;;;5051243;28;20444;-74
2021/07/29 11:53:19;;;;;;;58.00;2.73;;;34.90;1.00;;;;;;5049846;28;20452;-73
2021/07/29 11:55:54;;;;;;;58.20;2.67;;;34.60;1.00;;;;;;5051227;28;20468;-73
2021/07/29 11:58:22;;;;;;;57.77;2.40;;;33.50;1.00;;;;;;5051202;28;20456;-73
2021/07/29 12:00:49;;;;;;;57.90;2.30;;;32.30;1.00;;;;;;5050595;28;20960;-74
2021/07/29 12:03:27;;;;;;;57.67;2.37;;;31.80;1.00;;;;;;5051284;28;20514;-74
2021/07/29 12:05:55;;;;;;;57.80;2.30;;;32.20;1.00;;;;;;5051289;28;20558;-73
2021/07/29 12:08:22;;;;;;;57.60;2.10;;;32.80;1.00;;;;;;5051569;28;20530;-73
2021/07/29 12:10:52;;;;;;;57.07;1.73;;;33.30;1.00;;;;;;5051454;28;20551;-73
2021/07/29 12:13:20;;;;;;;58.00;1.90;;;34.20;1.00;;;;;;5051287;28;20874;-74
2021/07/29 12:15:49;;;;;;;56.77;1.67;;;35.00;1.00;;;;;;5051309;28;20476;-73
2021/07/29 12:18:16;;;;;;;57.37;2.30;;;36.00;1.00;;;;;;5051152;28;20551;-74
2021/07/29 12:20:46;;;;;;;57.80;2.47;;;36.70;1.00;;;;;;5051340;28;20543;-74
2021/07/29 12:23:14;;;;;;;57.03;1.90;;;37.40;1.00;;;;;;5050791;28;20479;-73
2021/07/29 12:25:41;;;;;;;57.17;2.20;;;37.80;1.00;;;;;;5050068;28;20472;-73
2021/07/29 12:28:08;;;;;;;58.50;2.83;;;38.10;1.00;;;;;;5051109;28;20952;-73
2021/07/29 12:30:38;;;;;;;57.30;2.20;;;38.70;1.00;;;;;;5050994;28;20534;-73
2021/07/29 12:33:10;;;;;;;57.17;2.17;;;39.20;1.00;;;;;;5051089;28;20501;-73
2021/07/29 12:35:38;;;;;;;57.17;2.20;;;39.40;1.00;;;;;;5050994;28;20483;-73
2021/07/29 12:38:06;;;;;;;57.40;2.30;;;39.30;1.00;;;;;;5051294;28;20487;-74
2021/07/29 12:40:33;;;;;;;57.30;2.23;;;39.50;1.00;;;;;;5051102;28;20882;-74
2021/07/29 12:43:20;;;;;;;57.07;2.27;;;39.40;1.00;;;;;;5052678;28;20456;-73
2021/07/29 12:45:48;;;;;;;56.87;2.10;;;39.00;1.00;;;;;;5054805;28;20884;-73
2021/07/29 12:48:15;;;;;;;57.07;2.20;;;38.40;1.00;;;;;;5054886;28;20539;-73
2021/07/29 12:50:43;;;;;;;57.03;2.10;;;37.30;1.00;;;;;;5054832;28;20531;-73
2021/07/29 12:53:12;;;;;;;56.93;2.10;;;36.80;1.00;;;;;;5054520;28;21015;-73
2021/07/29 12:55:39;;;;;;;56.67;1.87;;;36.90;1.00;;;;;;5043664;28;20976;-74
2021/07/29 12:58:07;;;;;;;56.97;2.03;;;37.10;1.00;;;;;;5046940;28;20539;-74